sensor_id;sensor_type;location;lat;lon;timestamp;P1;durP1;ratioP1;P2;durP2;ratioP2
19587;SDS011;9940;47.252;8.696;2023-03-01T00:01:24;25.83;;;8.23;;
19587;SDS011;9940;47.252;8.696;2023-03-01T00:03:51;22.08;;;7.70;;
19587;SDS011;9940;47.252;8.696;2023-03-01T00:06:17;23.80;;;7.97;;
19587;SDS011;9940;47.252;8.696;2023-03-01T00:08:44;24.15;;;8.32;;
19587;SDS011;9940;47.252;8.696;2023-03-01T00:13:35;22.17;;;8.07;;
19587;SDS011;9940;47.252;8.696;2023-03-01T00:16:05;23.33;;;8.30;;
19587;SDS011;9940;47.252;8.696;2023-03-01T00:18:32;23.13;;;8.13;;
19587;SDS011;9940;47.252;8.696;2023-03-01T00:20:58;23.40;;;7.90;;
19587;SDS011;9940;47.252;8.696;2023-03-01T00:23:24;25.65;;;7.97;;
19587;SDS011;9940;47.252;8.696;2023-03-01T00:25:50;21.80;;;7.93;;
19587;SDS011;9940;47.252;8.696;2023-03-01T00:28:16;23.40;;;8.27;;
19587;SDS011;9940;47.252;8.696;2023-03-01T00:30:42;23.23;;;8.73;;
19587;SDS011;9940;47.252;8.696;2023-03-01T00:33:08;26.73;;;8.63;;
19587;SDS011;9940;47.252;8.696;2023-03-01T00:35:34;22.73;;;8.27;;
19587;SDS011;9940;47.252;8.696;2023-03-01T00:38:00;24.13;;;7.80;;
19587;SDS011;9940;47.252;8.696;2023-03-01T00:40:26;25.85;;;8.63;;
19587;SDS011;9940;47.252;8.696;2023-03-01T00:42:53;24.75;;;8.70;;
19587;SDS011;9940;47.252;8.696;2023-03-01T00:45:19;28.40;;;9.10;;
19587;SDS011;9940;47.252;8.696;2023-03-01T00:47:45;25.05;;;8.05;;
19587;SDS011;9940;47.252;8.696;2023-03-01T00:50:12;25.20;;;8.63;;
19587;SDS011;9940;47.252;8.696;2023-03-01T00:52:38;22.08;;;8.18;;
19587;SDS011;9940;47.252;8.696;2023-03-01T00:55:04;26.17;;;8.55;;
19587;SDS011;9940;47.252;8.696;2023-03-01T00:57:30;23.75;;;8.68;;
19587;SDS011;9940;47.252;8.696;2023-03-01T00:59:58;26.70;;;8.90;;
19587;SDS011;9940;47.252;8.696;2023-03-01T01:02:24;28.02;;;8.85;;
19587;SDS011;9940;47.252;8.696;2023-03-01T01:04:50;25.55;;;8.45;;
19587;SDS011;9940;47.252;8.696;2023-03-01T01:07:16;25.13;;;8.90;;
19587;SDS011;9940;47.252;8.696;2023-03-01T01:09:52;23.77;;;8.75;;
19587;SDS011;9940;47.252;8.696;2023-03-01T01:12:17;26.67;;;9.13;;
19587;SDS011;9940;47.252;8.696;2023-03-01T01:14:45;26.35;;;9.95;;
19587;SDS011;9940;47.252;8.696;2023-03-01T01:17:11;27.02;;;9.68;;
19587;SDS011;9940;47.252;8.696;2023-03-01T01:19:39;24.67;;;8.30;;
19587;SDS011;9940;47.252;8.696;2023-03-01T01:22:04;22.52;;;8.82;;
19587;SDS011;9940;47.252;8.696;2023-03-01T01:24:30;28.30;;;9.23;;
19587;SDS011;9940;47.252;8.696;2023-03-01T01:26:58;26.33;;;9.55;;
19587;SDS011;9940;47.252;8.696;2023-03-01T01:29:23;27.25;;;8.75;;
19587;SDS011;9940;47.252;8.696;2023-03-01T01:31:49;26.25;;;8.93;;
19587;SDS011;9940;47.252;8.696;2023-03-01T01:34:16;24.55;;;8.55;;
19587;SDS011;9940;47.252;8.696;2023-03-01T01:36:46;27.55;;;9.52;;
19587;SDS011;9940;47.252;8.696;2023-03-01T01:39:14;34.28;;;9.00;;
19587;SDS011;9940;47.252;8.696;2023-03-01T01:41:41;25.20;;;8.13;;
19587;SDS011;9940;47.252;8.696;2023-03-01T01:52:21;22.27;;;7.85;;
19587;SDS011;9940;47.252;8.696;2023-03-01T01:55:11;23.77;;;8.15;;
19587;SDS011;9940;47.252;8.696;2023-03-01T01:57:48;26.90;;;9.20;;
19587;SDS011;9940;47.252;8.696;2023-03-01T02:00:22;27.67;;;8.00;;
19587;SDS011;9940;47.252;8.696;2023-03-01T02:02:50;24.80;;;8.43;;
19587;SDS011;9940;47.252;8.696;2023-03-01T02:05:29;27.08;;;8.70;;
19587;SDS011;9940;47.252;8.696;2023-03-01T02:08:08;28.52;;;9.27;;
19587;SDS011;9940;47.252;8.696;2023-03-01T02:10:36;25.25;;;8.02;;
19587;SDS011;9940;47.252;8.696;2023-03-01T02:13:05;25.05;;;8.32;;
19587;SDS011;9940;47.252;8.696;2023-03-01T02:15:35;25.92;;;8.27;;
19587;SDS011;9940;47.252;8.696;2023-03-01T02:18:02;26.00;;;9.00;;
19587;SDS011;9940;47.252;8.696;2023-03-01T02:23:01;25.35;;;9.27;;
19587;SDS011;9940;47.252;8.696;2023-03-01T02:30:43;27.98;;;8.95;;
19587;SDS011;9940;47.252;8.696;2023-03-01T02:33:29;26.13;;;9.13;;
19587;SDS011;9940;47.252;8.696;2023-03-01T02:36:00;29.92;;;9.63;;
19587;SDS011;9940;47.252;8.696;2023-03-01T02:38:27;24.63;;;8.43;;
19587;SDS011;9940;47.252;8.696;2023-03-01T02:40:53;28.25;;;9.13;;
19587;SDS011;9940;47.252;8.696;2023-03-01T02:43:22;30.98;;;9.35;;
19587;SDS011;9940;47.252;8.696;2023-03-01T02:45:52;27.88;;;8.68;;
19587;SDS011;9940;47.252;8.696;2023-03-01T02:48:22;28.75;;;9.65;;
19587;SDS011;9940;47.252;8.696;2023-03-01T02:56:35;27.23;;;9.43;;
19587;SDS011;9940;47.252;8.696;2023-03-01T02:59:06;29.33;;;10.65;;
19587;SDS011;9940;47.252;8.696;2023-03-01T03:01:36;28.80;;;9.48;;
19587;SDS011;9940;47.252;8.696;2023-03-01T03:04:06;26.38;;;9.27;;
19587;SDS011;9940;47.252;8.696;2023-03-01T03:06:34;29.95;;;10.13;;
19587;SDS011;9940;47.252;8.696;2023-03-01T03:09:00;32.70;;;9.98;;
19587;SDS011;9940;47.252;8.696;2023-03-01T03:11:28;34.88;;;9.82;;
19587;SDS011;9940;47.252;8.696;2023-03-01T03:13:55;25.90;;;9.50;;
19587;SDS011;9940;47.252;8.696;2023-03-01T03:16:22;29.20;;;10.25;;
19587;SDS011;9940;47.252;8.696;2023-03-01T03:18:48;29.73;;;10.38;;
19587;SDS011;9940;47.252;8.696;2023-03-01T03:21:16;31.02;;;9.85;;
19587;SDS011;9940;47.252;8.696;2023-03-01T03:23:42;29.33;;;10.45;;
19587;SDS011;9940;47.252;8.696;2023-03-01T03:26:08;32.83;;;10.02;;
19587;SDS011;9940;47.252;8.696;2023-03-01T03:28:40;31.40;;;10.40;;
19587;SDS011;9940;47.252;8.696;2023-03-01T03:31:08;32.30;;;11.00;;
19587;SDS011;9940;47.252;8.696;2023-03-01T03:33:33;30.80;;;9.48;;
19587;SDS011;9940;47.252;8.696;2023-03-01T03:35:59;33.42;;;11.60;;
19587;SDS011;9940;47.252;8.696;2023-03-01T03:38:30;29.42;;;10.38;;
19587;SDS011;9940;47.252;8.696;2023-03-01T03:40:59;30.38;;;9.80;;
19587;SDS011;9940;47.252;8.696;2023-03-01T03:43:28;32.85;;;10.80;;
19587;SDS011;9940;47.252;8.696;2023-03-01T03:45:55;30.45;;;10.50;;
19587;SDS011;9940;47.252;8.696;2023-03-01T03:48:24;30.65;;;10.10;;
19587;SDS011;9940;47.252;8.696;2023-03-01T03:50:51;30.50;;;9.73;;
19587;SDS011;9940;47.252;8.696;2023-03-01T03:53:19;33.25;;;10.40;;
19587;SDS011;9940;47.252;8.696;2023-03-01T03:55:46;32.13;;;9.80;;
19587;SDS011;9940;47.252;8.696;2023-03-01T03:58:14;30.38;;;10.40;;
19587;SDS011;9940;47.252;8.696;2023-03-01T04:00:45;32.30;;;10.55;;
19587;SDS011;9940;47.252;8.696;2023-03-01T04:03:13;29.77;;;9.60;;
19587;SDS011;9940;47.252;8.696;2023-03-01T04:05:43;30.83;;;10.63;;
19587;SDS011;9940;47.252;8.696;2023-03-01T04:08:14;32.40;;;10.27;;
19587;SDS011;9940;47.252;8.696;2023-03-01T04:10:44;27.40;;;10.55;;
19587;SDS011;9940;47.252;8.696;2023-03-01T04:13:13;22.77;;;7.60;;
19587;SDS011;9940;47.252;8.696;2023-03-01T04:15:44;36.05;;;10.32;;
19587;SDS011;9940;47.252;8.696;2023-03-01T04:18:12;31.23;;;9.77;;
19587;SDS011;9940;47.252;8.696;2023-03-01T04:20:39;33.08;;;10.40;;
19587;SDS011;9940;47.252;8.696;2023-03-01T04:23:06;30.05;;;9.70;;
19587;SDS011;9940;47.252;8.696;2023-03-01T04:25:39;28.85;;;9.93;;
19587;SDS011;9940;47.252;8.696;2023-03-01T04:28:06;31.75;;;10.48;;
19587;SDS011;9940;47.252;8.696;2023-03-01T04:30:32;30.33;;;10.05;;
19587;SDS011;9940;47.252;8.696;2023-03-01T04:33:01;31.42;;;9.98;;
19587;SDS011;9940;47.252;8.696;2023-03-01T04:35:33;29.45;;;10.00;;
19587;SDS011;9940;47.252;8.696;2023-03-01T04:38:00;32.80;;;10.05;;
19587;SDS011;9940;47.252;8.696;2023-03-01T04:40:26;31.75;;;10.80;;
19587;SDS011;9940;47.252;8.696;2023-03-01T04:42:54;29.50;;;9.88;;
19587;SDS011;9940;47.252;8.696;2023-03-01T04:45:20;34.00;;;10.45;;
19587;SDS011;9940;47.252;8.696;2023-03-01T04:47:48;29.15;;;9.82;;
19587;SDS011;9940;47.252;8.696;2023-03-01T04:50:16;31.35;;;10.35;;
19587;SDS011;9940;47.252;8.696;2023-03-01T04:52:45;26.90;;;9.67;;
19587;SDS011;9940;47.252;8.696;2023-03-01T04:55:12;30.27;;;10.38;;
19587;SDS011;9940;47.252;8.696;2023-03-01T04:57:38;28.02;;;10.25;;
19587;SDS011;9940;47.252;8.696;2023-03-01T05:00:05;29.08;;;9.40;;
19587;SDS011;9940;47.252;8.696;2023-03-01T05:02:45;28.48;;;9.23;;
19587;SDS011;9940;47.252;8.696;2023-03-01T05:05:25;38.72;;;14.38;;
19587;SDS011;9940;47.252;8.696;2023-03-01T05:08:07;30.35;;;10.85;;
19587;SDS011;9940;47.252;8.696;2023-03-01T05:10:42;31.17;;;10.13;;
19587;SDS011;9940;47.252;8.696;2023-03-01T05:13:16;29.48;;;10.25;;
19587;SDS011;9940;47.252;8.696;2023-03-01T05:15:55;30.60;;;9.80;;
19587;SDS011;9940;47.252;8.696;2023-03-01T05:18:23;31.85;;;10.50;;
19587;SDS011;9940;47.252;8.696;2023-03-01T05:20:55;30.50;;;10.05;;
19587;SDS011;9940;47.252;8.696;2023-03-01T05:23:29;27.65;;;9.05;;
19587;SDS011;9940;47.252;8.696;2023-03-01T05:25:59;27.85;;;9.38;;
19587;SDS011;9940;47.252;8.696;2023-03-01T05:28:25;27.42;;;9.43;;
19587;SDS011;9940;47.252;8.696;2023-03-01T05:30:53;32.17;;;10.20;;
19587;SDS011;9940;47.252;8.696;2023-03-01T05:33:19;29.30;;;10.00;;
19587;SDS011;9940;47.252;8.696;2023-03-01T05:35:46;29.58;;;10.05;;
19587;SDS011;9940;47.252;8.696;2023-03-01T05:38:14;33.15;;;9.75;;
19587;SDS011;9940;47.252;8.696;2023-03-01T05:40:40;22.60;;;8.50;;
19587;SDS011;9940;47.252;8.696;2023-03-01T05:43:07;28.90;;;10.23;;
19587;SDS011;9940;47.252;8.696;2023-03-01T05:45:32;27.02;;;9.90;;
19587;SDS011;9940;47.252;8.696;2023-03-01T05:48:00;29.60;;;9.77;;
19587;SDS011;9940;47.252;8.696;2023-03-01T05:50:29;32.70;;;9.68;;
19587;SDS011;9940;47.252;8.696;2023-03-01T05:55:28;26.55;;;9.35;;
19587;SDS011;9940;47.252;8.696;2023-03-01T05:57:55;32.22;;;9.77;;
19587;SDS011;9940;47.252;8.696;2023-03-01T06:00:23;29.75;;;9.32;;
19587;SDS011;9940;47.252;8.696;2023-03-01T06:02:49;29.05;;;10.82;;
19587;SDS011;9940;47.252;8.696;2023-03-01T06:05:16;33.28;;;11.18;;
19587;SDS011;9940;47.252;8.696;2023-03-01T06:07:45;27.58;;;9.88;;
19587;SDS011;9940;47.252;8.696;2023-03-01T06:10:11;27.60;;;9.77;;
19587;SDS011;9940;47.252;8.696;2023-03-01T06:12:40;28.92;;;9.50;;
19587;SDS011;9940;47.252;8.696;2023-03-01T06:15:07;28.70;;;10.15;;
19587;SDS011;9940;47.252;8.696;2023-03-01T06:17:37;28.38;;;10.15;;
19587;SDS011;9940;47.252;8.696;2023-03-01T06:20:10;31.73;;;10.13;;
19587;SDS011;9940;47.252;8.696;2023-03-01T06:22:37;27.48;;;9.27;;
19587;SDS011;9940;47.252;8.696;2023-03-01T06:25:03;29.15;;;9.15;;
19587;SDS011;9940;47.252;8.696;2023-03-01T06:27:29;29.67;;;9.98;;
19587;SDS011;9940;47.252;8.696;2023-03-01T06:29:55;25.40;;;8.73;;
19587;SDS011;9940;47.252;8.696;2023-03-01T06:32:20;29.30;;;9.25;;
19587;SDS011;9940;47.252;8.696;2023-03-01T06:34:49;24.83;;;9.27;;
19587;SDS011;9940;47.252;8.696;2023-03-01T06:37:15;27.77;;;9.85;;
19587;SDS011;9940;47.252;8.696;2023-03-01T06:39:41;33.85;;;9.90;;
19587;SDS011;9940;47.252;8.696;2023-03-01T06:42:09;27.67;;;8.90;;
19587;SDS011;9940;47.252;8.696;2023-03-01T06:44:35;24.23;;;8.18;;
19587;SDS011;9940;47.252;8.696;2023-03-01T06:47:02;25.50;;;8.15;;
19587;SDS011;9940;47.252;8.696;2023-03-01T06:49:28;27.42;;;9.15;;
19587;SDS011;9940;47.252;8.696;2023-03-01T06:51:54;24.73;;;8.50;;
19587;SDS011;9940;47.252;8.696;2023-03-01T06:54:19;28.15;;;9.18;;
19587;SDS011;9940;47.252;8.696;2023-03-01T06:56:50;26.42;;;8.88;;
19587;SDS011;9940;47.252;8.696;2023-03-01T06:59:16;24.33;;;8.38;;
19587;SDS011;9940;47.252;8.696;2023-03-01T07:01:42;31.85;;;8.93;;
19587;SDS011;9940;47.252;8.696;2023-03-01T07:04:09;25.58;;;9.18;;
19587;SDS011;9940;47.252;8.696;2023-03-01T07:06:35;27.27;;;8.63;;
19587;SDS011;9940;47.252;8.696;2023-03-01T07:09:00;23.67;;;8.45;;
19587;SDS011;9940;47.252;8.696;2023-03-01T07:11:26;26.30;;;9.07;;
19587;SDS011;9940;47.252;8.696;2023-03-01T07:13:52;27.05;;;9.25;;
19587;SDS011;9940;47.252;8.696;2023-03-01T07:16:20;25.40;;;8.48;;
19587;SDS011;9940;47.252;8.696;2023-03-01T07:18:46;28.67;;;9.13;;
19587;SDS011;9940;47.252;8.696;2023-03-01T07:21:13;27.88;;;9.13;;
19587;SDS011;9940;47.252;8.696;2023-03-01T07:23:41;26.55;;;8.18;;
19587;SDS011;9940;47.252;8.696;2023-03-01T07:26:09;33.17;;;9.07;;
19587;SDS011;9940;47.252;8.696;2023-03-01T07:28:35;28.10;;;9.65;;
19587;SDS011;9940;47.252;8.696;2023-03-01T07:31:03;26.85;;;9.10;;
19587;SDS011;9940;47.252;8.696;2023-03-01T07:33:30;25.77;;;8.43;;
19587;SDS011;9940;47.252;8.696;2023-03-01T07:35:57;25.05;;;8.73;;
19587;SDS011;9940;47.252;8.696;2023-03-01T07:38:23;26.88;;;8.95;;
19587;SDS011;9940;47.252;8.696;2023-03-01T07:40:49;25.42;;;8.80;;
19587;SDS011;9940;47.252;8.696;2023-03-01T07:43:15;23.95;;;8.50;;
19587;SDS011;9940;47.252;8.696;2023-03-01T07:45:40;25.40;;;8.80;;
19587;SDS011;9940;47.252;8.696;2023-03-01T07:48:06;24.55;;;8.07;;
19587;SDS011;9940;47.252;8.696;2023-03-01T07:50:37;26.58;;;8.45;;
19587;SDS011;9940;47.252;8.696;2023-03-01T07:53:02;24.77;;;8.63;;
19587;SDS011;9940;47.252;8.696;2023-03-01T07:55:28;23.02;;;7.85;;
19587;SDS011;9940;47.252;8.696;2023-03-01T07:57:56;23.15;;;8.23;;
19587;SDS011;9940;47.252;8.696;2023-03-01T08:00:22;28.70;;;8.75;;
19587;SDS011;9940;47.252;8.696;2023-03-01T08:02:50;31.05;;;9.20;;
19587;SDS011;9940;47.252;8.696;2023-03-01T08:05:16;31.00;;;8.77;;
19587;SDS011;9940;47.252;8.696;2023-03-01T08:07:41;34.00;;;9.15;;
19587;SDS011;9940;47.252;8.696;2023-03-01T08:10:07;29.52;;;8.77;;
19587;SDS011;9940;47.252;8.696;2023-03-01T08:12:36;27.27;;;9.32;;
19587;SDS011;9940;47.252;8.696;2023-03-01T08:15:04;25.85;;;8.82;;
19587;SDS011;9940;47.252;8.696;2023-03-01T08:17:30;25.98;;;8.55;;
19587;SDS011;9940;47.252;8.696;2023-03-01T08:19:55;22.75;;;8.57;;
19587;SDS011;9940;47.252;8.696;2023-03-01T08:22:21;29.48;;;8.40;;
19587;SDS011;9940;47.252;8.696;2023-03-01T08:24:46;28.13;;;9.48;;
19587;SDS011;9940;47.252;8.696;2023-03-01T08:27:14;27.77;;;8.98;;
19587;SDS011;9940;47.252;8.696;2023-03-01T08:29:41;26.95;;;8.82;;
19587;SDS011;9940;47.252;8.696;2023-03-01T08:32:06;28.08;;;8.93;;
19587;SDS011;9940;47.252;8.696;2023-03-01T08:34:36;24.75;;;8.95;;
19587;SDS011;9940;47.252;8.696;2023-03-01T08:37:02;27.45;;;8.45;;
19587;SDS011;9940;47.252;8.696;2023-03-01T08:39:30;26.90;;;9.00;;
19587;SDS011;9940;47.252;8.696;2023-03-01T08:41:56;23.17;;;9.05;;
19587;SDS011;9940;47.252;8.696;2023-03-01T08:44:22;24.77;;;9.00;;
19587;SDS011;9940;47.252;8.696;2023-03-01T08:46:48;26.42;;;8.68;;
19587;SDS011;9940;47.252;8.696;2023-03-01T08:49:15;26.75;;;8.73;;
19587;SDS011;9940;47.252;8.696;2023-03-01T08:51:45;24.00;;;8.95;;
19587;SDS011;9940;47.252;8.696;2023-03-01T08:54:13;27.80;;;8.73;;
19587;SDS011;9940;47.252;8.696;2023-03-01T08:56:43;26.55;;;8.50;;
19587;SDS011;9940;47.252;8.696;2023-03-01T08:59:10;26.65;;;8.27;;
19587;SDS011;9940;47.252;8.696;2023-03-01T09:01:36;27.20;;;8.20;;
19587;SDS011;9940;47.252;8.696;2023-03-01T09:04:02;22.27;;;8.25;;
19587;SDS011;9940;47.252;8.696;2023-03-01T09:06:31;26.77;;;8.25;;
19587;SDS011;9940;47.252;8.696;2023-03-01T09:08:58;26.38;;;7.60;;
19587;SDS011;9940;47.252;8.696;2023-03-01T09:11:23;25.00;;;8.85;;
19587;SDS011;9940;47.252;8.696;2023-03-01T09:13:49;25.48;;;8.23;;
19587;SDS011;9940;47.252;8.696;2023-03-01T09:16:16;24.23;;;8.07;;
19587;SDS011;9940;47.252;8.696;2023-03-01T09:18:48;21.15;;;8.15;;
19587;SDS011;9940;47.252;8.696;2023-03-01T09:21:19;24.63;;;8.32;;
19587;SDS011;9940;47.252;8.696;2023-03-01T09:23:47;24.90;;;8.27;;
19587;SDS011;9940;47.252;8.696;2023-03-01T09:26:14;22.13;;;7.80;;
19587;SDS011;9940;47.252;8.696;2023-03-01T09:28:44;23.98;;;7.70;;
19587;SDS011;9940;47.252;8.696;2023-03-01T09:31:13;24.35;;;7.75;;
19587;SDS011;9940;47.252;8.696;2023-03-01T09:33:40;26.10;;;8.52;;
19587;SDS011;9940;47.252;8.696;2023-03-01T09:36:10;23.98;;;8.75;;
19587;SDS011;9940;47.252;8.696;2023-03-01T09:38:37;26.77;;;8.82;;
19587;SDS011;9940;47.252;8.696;2023-03-01T09:41:14;22.08;;;7.80;;
19587;SDS011;9940;47.252;8.696;2023-03-01T09:44:03;25.50;;;8.88;;
19587;SDS011;9940;47.252;8.696;2023-03-01T09:46:42;23.17;;;8.38;;
19587;SDS011;9940;47.252;8.696;2023-03-01T09:49:10;21.38;;;8.05;;
19587;SDS011;9940;47.252;8.696;2023-03-01T09:51:43;21.75;;;7.35;;
19587;SDS011;9940;47.252;8.696;2023-03-01T09:54:23;19.55;;;7.72;;
19587;SDS011;9940;47.252;8.696;2023-03-01T10:11:24;20.27;;;7.35;;
19587;SDS011;9940;47.252;8.696;2023-03-01T10:19:08;23.20;;;8.23;;
19587;SDS011;9940;47.252;8.696;2023-03-01T10:24:12;18.35;;;6.95;;
19587;SDS011;9940;47.252;8.696;2023-03-01T10:27:01;22.58;;;7.03;;
19587;SDS011;9940;47.252;8.696;2023-03-01T10:30:11;23.00;;;8.13;;
19587;SDS011;9940;47.252;8.696;2023-03-01T10:32:46;23.73;;;8.38;;
19587;SDS011;9940;47.252;8.696;2023-03-01T10:35:19;22.38;;;8.10;;
19587;SDS011;9940;47.252;8.696;2023-03-01T10:40:28;19.50;;;7.80;;
19587;SDS011;9940;47.252;8.696;2023-03-01T10:42:54;20.70;;;7.70;;
19587;SDS011;9940;47.252;8.696;2023-03-01T10:50:37;20.83;;;7.88;;
19587;SDS011;9940;47.252;8.696;2023-03-01T10:53:04;23.48;;;8.32;;
19587;SDS011;9940;47.252;8.696;2023-03-01T10:55:41;18.92;;;7.35;;
19587;SDS011;9940;47.252;8.696;2023-03-01T11:01:04;20.38;;;7.45;;
19587;SDS011;9940;47.252;8.696;2023-03-01T11:04:03;22.52;;;8.00;;
19587;SDS011;9940;47.252;8.696;2023-03-01T11:06:37;19.60;;;6.60;;
19587;SDS011;9940;47.252;8.696;2023-03-01T11:09:15;20.70;;;8.02;;
19587;SDS011;9940;47.252;8.696;2023-03-01T11:11:43;22.10;;;7.75;;
19587;SDS011;9940;47.252;8.696;2023-03-01T11:14:45;22.80;;;8.07;;
19587;SDS011;9940;47.252;8.696;2023-03-01T11:22:34;18.95;;;7.75;;
19587;SDS011;9940;47.252;8.696;2023-03-01T11:25:01;20.83;;;7.07;;
19587;SDS011;9940;47.252;8.696;2023-03-01T11:27:28;20.40;;;6.82;;
19587;SDS011;9940;47.252;8.696;2023-03-01T11:30:07;19.25;;;6.90;;
19587;SDS011;9940;47.252;8.696;2023-03-01T11:32:55;21.92;;;7.60;;
19587;SDS011;9940;47.252;8.696;2023-03-01T11:35:27;20.73;;;7.03;;
19587;SDS011;9940;47.252;8.696;2023-03-01T11:40:43;22.88;;;8.32;;
19587;SDS011;9940;47.252;8.696;2023-03-01T11:54:45;22.80;;;7.75;;
19587;SDS011;9940;47.252;8.696;2023-03-01T12:08:36;27.40;;;8.38;;
19587;SDS011;9940;47.252;8.696;2023-03-01T12:22:32;21.52;;;7.68;;
19587;SDS011;9940;47.252;8.696;2023-03-01T12:24:38;23.95;;;8.27;;
19587;SDS011;9940;47.252;8.696;2023-03-01T12:27:34;21.55;;;7.78;;
19587;SDS011;9940;47.252;8.696;2023-03-01T12:49:30;23.00;;;8.13;;
19587;SDS011;9940;47.252;8.696;2023-03-01T12:52:03;22.27;;;8.23;;
19587;SDS011;9940;47.252;8.696;2023-03-01T12:54:35;21.13;;;7.55;;
19587;SDS011;9940;47.252;8.696;2023-03-01T12:57:25;19.50;;;7.80;;
19587;SDS011;9940;47.252;8.696;2023-03-01T13:08:29;26.00;;;8.68;;
19587;SDS011;9940;47.252;8.696;2023-03-01T13:11:21;25.70;;;8.20;;
19587;SDS011;9940;47.252;8.696;2023-03-01T13:13:50;22.30;;;8.00;;
19587;SDS011;9940;47.252;8.696;2023-03-01T13:16:38;23.35;;;7.72;;
19587;SDS011;9940;47.252;8.696;2023-03-01T13:21:35;23.00;;;7.90;;
19587;SDS011;9940;47.252;8.696;2023-03-01T13:24:01;20.95;;;7.85;;
19587;SDS011;9940;47.252;8.696;2023-03-01T13:26:28;22.05;;;7.97;;
19587;SDS011;9940;47.252;8.696;2023-03-01T13:28:54;20.92;;;7.38;;
19587;SDS011;9940;47.252;8.696;2023-03-01T13:46:51;21.80;;;7.65;;
19587;SDS011;9940;47.252;8.696;2023-03-01T13:49:42;19.73;;;7.20;;
19587;SDS011;9940;47.252;8.696;2023-03-01T13:54:58;24.90;;;8.63;;
19587;SDS011;9940;47.252;8.696;2023-03-01T13:57:29;21.08;;;7.88;;
19587;SDS011;9940;47.252;8.696;2023-03-01T14:00:00;21.98;;;7.35;;
19587;SDS011;9940;47.252;8.696;2023-03-01T14:02:27;24.35;;;8.20;;
19587;SDS011;9940;47.252;8.696;2023-03-01T14:04:59;24.42;;;7.95;;
19587;SDS011;9940;47.252;8.696;2023-03-01T14:07:26;21.88;;;7.55;;
19587;SDS011;9940;47.252;8.696;2023-03-01T14:10:04;21.00;;;7.25;;
19587;SDS011;9940;47.252;8.696;2023-03-01T14:12:54;18.42;;;7.13;;
19587;SDS011;9940;47.252;8.696;2023-03-01T14:15:48;19.45;;;7.38;;
19587;SDS011;9940;47.252;8.696;2023-03-01T14:21:17;21.73;;;7.65;;
19587;SDS011;9940;47.252;8.696;2023-03-01T14:23:43;18.77;;;6.78;;
19587;SDS011;9940;47.252;8.696;2023-03-01T14:26:11;21.65;;;7.07;;
19587;SDS011;9940;47.252;8.696;2023-03-01T14:28:44;21.20;;;7.35;;
19587;SDS011;9940;47.252;8.696;2023-03-01T14:34:18;22.85;;;7.85;;
19587;SDS011;9940;47.252;8.696;2023-03-01T14:36:48;22.20;;;7.38;;
19587;SDS011;9940;47.252;8.696;2023-03-01T14:39:18;21.77;;;7.93;;
19587;SDS011;9940;47.252;8.696;2023-03-01T14:41:48;21.35;;;7.70;;
19587;SDS011;9940;47.252;8.696;2023-03-01T14:44:16;22.65;;;8.20;;
19587;SDS011;9940;47.252;8.696;2023-03-01T14:46:52;24.90;;;8.60;;
19587;SDS011;9940;47.252;8.696;2023-03-01T14:49:23;21.15;;;8.02;;
19587;SDS011;9940;47.252;8.696;2023-03-01T14:51:59;21.15;;;7.72;;
19587;SDS011;9940;47.252;8.696;2023-03-01T14:57:25;19.77;;;7.32;;
19587;SDS011;9940;47.252;8.696;2023-03-01T14:59:55;19.75;;;7.07;;
19587;SDS011;9940;47.252;8.696;2023-03-01T15:02:25;21.02;;;7.30;;
19587;SDS011;9940;47.252;8.696;2023-03-01T15:04:56;24.20;;;8.23;;
19587;SDS011;9940;47.252;8.696;2023-03-01T15:07:30;24.17;;;8.38;;
19587;SDS011;9940;47.252;8.696;2023-03-01T15:09:59;25.23;;;8.70;;
19587;SDS011;9940;47.252;8.696;2023-03-01T15:14:54;24.15;;;8.77;;
19587;SDS011;9940;47.252;8.696;2023-03-01T15:19:54;24.55;;;8.25;;
19587;SDS011;9940;47.252;8.696;2023-03-01T15:22:20;21.17;;;7.95;;
19587;SDS011;9940;47.252;8.696;2023-03-01T15:24:48;23.00;;;8.18;;
19587;SDS011;9940;47.252;8.696;2023-03-01T15:27:20;19.25;;;7.78;;
19587;SDS011;9940;47.252;8.696;2023-03-01T15:30:05;24.17;;;8.13;;
19587;SDS011;9940;47.252;8.696;2023-03-01T15:38:04;23.10;;;7.85;;
19587;SDS011;9940;47.252;8.696;2023-03-01T15:40:51;21.35;;;8.45;;
19587;SDS011;9940;47.252;8.696;2023-03-01T15:46:20;23.38;;;8.32;;
19587;SDS011;9940;47.252;8.696;2023-03-01T15:48:48;21.63;;;8.35;;
19587;SDS011;9940;47.252;8.696;2023-03-01T15:51:18;26.33;;;8.65;;
19587;SDS011;9940;47.252;8.696;2023-03-01T15:53:55;33.22;;;11.05;;
19587;SDS011;9940;47.252;8.696;2023-03-01T15:56:23;24.58;;;9.00;;
19587;SDS011;9940;47.252;8.696;2023-03-01T15:58:49;27.42;;;9.20;;
19587;SDS011;9940;47.252;8.696;2023-03-01T16:01:15;21.50;;;8.43;;
19587;SDS011;9940;47.252;8.696;2023-03-01T16:03:45;24.75;;;8.82;;
19587;SDS011;9940;47.252;8.696;2023-03-01T16:06:11;25.75;;;8.60;;
19587;SDS011;9940;47.252;8.696;2023-03-01T16:08:37;20.67;;;8.57;;
19587;SDS011;9940;47.252;8.696;2023-03-01T16:11:14;24.45;;;8.27;;
19587;SDS011;9940;47.252;8.696;2023-03-01T16:13:44;24.83;;;8.75;;
19587;SDS011;9940;47.252;8.696;2023-03-01T16:16:10;25.95;;;9.07;;
19587;SDS011;9940;47.252;8.696;2023-03-01T16:18:39;25.67;;;9.45;;
19587;SDS011;9940;47.252;8.696;2023-03-01T16:21:04;26.05;;;9.65;;
19587;SDS011;9940;47.252;8.696;2023-03-01T16:23:31;23.05;;;8.82;;
19587;SDS011;9940;47.252;8.696;2023-03-01T16:25:59;26.48;;;9.48;;
19587;SDS011;9940;47.252;8.696;2023-03-01T16:28:25;28.45;;;9.65;;
19587;SDS011;9940;47.252;8.696;2023-03-01T16:30:51;25.80;;;8.85;;
19587;SDS011;9940;47.252;8.696;2023-03-01T16:33:19;23.48;;;8.60;;
19587;SDS011;9940;47.252;8.696;2023-03-01T16:35:45;24.40;;;9.02;;
19587;SDS011;9940;47.252;8.696;2023-03-01T16:38:11;28.70;;;9.27;;
19587;SDS011;9940;47.252;8.696;2023-03-01T16:40:39;25.45;;;9.35;;
19587;SDS011;9940;47.252;8.696;2023-03-01T16:43:11;26.60;;;8.60;;
19587;SDS011;9940;47.252;8.696;2023-03-01T16:45:37;24.30;;;8.80;;
19587;SDS011;9940;47.252;8.696;2023-03-01T16:48:09;17.83;;;6.40;;
19587;SDS011;9940;47.252;8.696;2023-03-01T16:50:35;27.15;;;8.88;;
19587;SDS011;9940;47.252;8.696;2023-03-01T16:53:01;25.42;;;8.75;;
19587;SDS011;9940;47.252;8.696;2023-03-01T16:55:27;23.25;;;8.70;;
19587;SDS011;9940;47.252;8.696;2023-03-01T16:57:53;24.58;;;9.30;;
19587;SDS011;9940;47.252;8.696;2023-03-01T17:00:19;27.95;;;9.90;;
19587;SDS011;9940;47.252;8.696;2023-03-01T17:02:44;28.20;;;8.70;;
19587;SDS011;9940;47.252;8.696;2023-03-01T17:05:10;28.65;;;9.50;;
19587;SDS011;9940;47.252;8.696;2023-03-01T17:07:37;25.77;;;8.43;;
19587;SDS011;9940;47.252;8.696;2023-03-01T17:10:04;22.15;;;8.55;;
19587;SDS011;9940;47.252;8.696;2023-03-01T17:12:34;31.25;;;9.55;;
19587;SDS011;9940;47.252;8.696;2023-03-01T17:15:00;22.10;;;8.65;;
19587;SDS011;9940;47.252;8.696;2023-03-01T17:17:26;25.15;;;8.98;;
19587;SDS011;9940;47.252;8.696;2023-03-01T17:19:54;25.85;;;9.35;;
19587;SDS011;9940;47.252;8.696;2023-03-01T17:22:22;26.00;;;8.70;;
19587;SDS011;9940;47.252;8.696;2023-03-01T17:24:48;26.63;;;10.30;;
19587;SDS011;9940;47.252;8.696;2023-03-01T17:27:13;23.67;;;8.88;;
19587;SDS011;9940;47.252;8.696;2023-03-01T17:29:40;31.52;;;8.80;;
19587;SDS011;9940;47.252;8.696;2023-03-01T17:32:11;22.20;;;6.88;;
19587;SDS011;9940;47.252;8.696;2023-03-01T17:34:37;31.35;;;9.48;;
19587;SDS011;9940;47.252;8.696;2023-03-01T17:37:03;23.20;;;8.27;;
19587;SDS011;9940;47.252;8.696;2023-03-01T17:39:31;22.25;;;8.20;;
19587;SDS011;9940;47.252;8.696;2023-03-01T17:42:00;27.08;;;8.45;;
19587;SDS011;9940;47.252;8.696;2023-03-01T17:44:26;22.98;;;8.18;;
19587;SDS011;9940;47.252;8.696;2023-03-01T17:46:54;21.17;;;7.85;;
19587;SDS011;9940;47.252;8.696;2023-03-01T17:49:23;24.73;;;8.73;;
19587;SDS011;9940;47.252;8.696;2023-03-01T17:51:48;29.13;;;9.35;;